Time;durP1;ratioP1;P1;durP2;ratioP2;P2;SDS_P1;SDS_P2;PMS_P1;PMS_P2;Temp;Humidity;BMP_temperature;BMP_pressure;BME280_temperature;BME280_humidity;BME280_pressure;Samples;Min_cycle;Max_cycle;Signal;HPM_P1;HPM_P2
2022/01/23 00:01:17;;;;;;;12.48;3.20;;;;;;;6.29;100.00;103157.91;10465882;28;20060;-63
2022/01/23 00:06:39;;;;;;;10.07;3.67;;;;;;;6.38;100.00;103163.88;10483185;28;20051;-63
2022/01/23 00:12:07;;;;;;;10.10;3.45;;;;;;;6.24;100.00;103154.53;10465156;28;20057;-63
2022/01/23 00:17:34;;;;;;;7.38;3.63;;;;;;;6.34;100.00;103161.34;10457197;28;20410;-64
2022/01/23 00:23:02;;;;;;;12.10;3.75;;;;;;;6.31;100.00;103169.13;10470253;28;20114;-64
2022/01/23 00:34:06;;;;;;;8.18;3.40;;;;;;;6.14;100.00;103164.13;10467572;28;20056;-63
2022/01/23 00:39:27;;;;;;;12.32;3.47;;;;;;;6.15;100.00;103165.84;10486400;28;20051;-63
2022/01/23 00:44:55;;;;;;;10.95;3.67;;;;;;;6.19;100.00;103156.31;10485293;28;20056;-63
2022/01/23 00:50:17;;;;;;;13.95;3.45;;;;;;;6.18;100.00;103155.47;10482698;28;20052;-63
2022/01/23 00:55:42;;;;;;;8.55;3.03;;;;;;;6.18;100.00;103159.75;10466287;28;20059;-63
2022/01/23 01:01:04;;;;;;;8.77;3.40;;;;;;;6.13;100.00;103166.69;10467567;28;20052;-64
2022/01/23 01:06:26;;;;;;;8.30;2.95;;;;;;;6.14;100.00;103173.59;10462716;28;20588;-64
2022/01/23 01:11:57;;;;;;;7.13;3.33;;;;;;;6.16;100.00;103171.84;10471229;28;20056;-63
2022/01/23 01:34:16;;;;;;;10.25;3.05;;;;;;;6.13;100.00;103157.22;10477836;28;20064;-63
2022/01/23 01:39:37;;;;;;;11.68;3.58;;;;;;;6.13;100.00;103157.22;10475645;28;20048;-63
2022/01/23 01:44:59;;;;;;;5.80;3.33;;;;;;;6.18;100.00;103164.94;10434202;28;20059;-63
2022/01/23 01:50:21;;;;;;;10.05;3.05;;;;;;;6.08;100.00;103184.03;10455054;28;20049;-63
2022/01/23 01:55:47;;;;;;;9.48;2.78;;;;;;;6.06;100.00;103183.19;10463578;28;20045;-63
2022/01/23 02:57:39;;;;;;;8.75;3.40;;;;;;;6.09;100.00;103209.06;10466127;28;20045;-63
2022/01/23 03:03:12;;;;;;;7.50;3.38;;;;;;;6.20;100.00;103204.63;10454780;28;20057;-63
2022/01/23 03:31:20;;;;;;;9.45;4.00;;;;;;;6.29;100.00;103189.00;10494904;28;20052;-63
2022/01/23 03:36:42;;;;;;;17.10;4.43;;;;;;;6.18;100.00;103181.34;10492338;28;20505;-63
2022/01/23 03:42:04;;;;;;;11.32;4.78;;;;;;;6.12;100.00;103193.47;10520944;28;20059;-63
2022/01/23 03:47:36;;;;;;;9.52;4.95;;;;;;;6.15;100.00;103176.19;10493449;28;20049;-63
2022/01/23 03:52:58;;;;;;;9.57;5.25;;;;;;;6.13;100.00;103177.06;10494199;28;20510;-63
2022/01/23 03:58:20;;;;;;;8.95;5.30;;;;;;;6.20;100.00;103178.75;10507252;28;20494;-63
2022/01/23 04:03:41;;;;;;;14.13;5.45;;;;;;;6.16;100.00;103187.41;10492889;28;20057;-63
2022/01/23 04:09:03;;;;;;;10.82;5.50;;;;;;;6.22;100.00;103185.59;10493715;28;20060;-63
2022/01/23 04:14:26;;;;;;;8.50;4.93;;;;;;;6.22;100.00;103193.38;10491619;28;20048;-63
2022/01/23 04:59:46;;;;;;;11.52;5.13;;;;;;;6.21;100.00;103237.44;10492226;28;20513;-63
2022/01/23 05:05:08;;;;;;;13.55;5.00;;;;;;;6.32;100.00;103233.00;10459568;28;20386;-63
2022/01/23 05:10:30;;;;;;;10.50;4.68;;;;;;;6.31;100.00;103231.28;10492296;28;20051;-63
2022/01/23 05:15:52;;;;;;;9.27;4.70;;;;;;;6.30;100.00;103229.56;10521985;28;20108;-64
2022/01/23 05:26:59;;;;;;;13.52;3.90;;;;;;;6.31;100.00;103231.28;10473067;28;20044;-63
2022/01/23 05:32:23;;;;;;;13.10;3.72;;;;;;;6.28;100.00;103226.13;10498983;28;20079;-63
2022/01/23 05:37:45;;;;;;;9.88;3.88;;;;;;;6.26;100.00;103225.31;10497904;28;20049;-63
2022/01/23 05:43:07;;;;;;;9.35;3.42;;;;;;;6.26;100.00;103230.50;10498664;28;20497;-63
2022/01/23 05:48:29;;;;;;;11.25;3.67;;;;;;;6.29;100.00;103230.44;10497510;28;20402;-63
2022/01/23 05:53:50;;;;;;;11.85;3.33;;;;;;;6.27;100.00;103227.88;10479583;28;20048;-64
2022/01/23 05:59:12;;;;;;;11.02;3.60;;;;;;;6.24;100.00;103224.47;10498459;28;20048;-63
2022/01/23 06:04:34;;;;;;;10.65;3.20;;;;;;;6.31;100.00;103229.56;10497623;28;20056;-63
2022/01/23 06:09:56;;;;;;;7.03;3.17;;;;;;;6.21;100.00;103234.84;10498451;28;20821;-63
2022/01/23 06:15:18;;;;;;;9.95;3.53;;;;;;;6.27;100.00;103237.34;10497280;28;20348;-63
2022/01/23 06:20:40;;;;;;;7.50;2.78;;;;;;;6.26;100.00;103241.69;10496674;28;20044;-63
2022/01/23 06:26:01;;;;;;;11.10;3.20;;;;;;;6.22;100.00;103233.97;10484088;28;20048;-63
2022/01/23 06:31:23;;;;;;;7.38;3.17;;;;;;;6.23;100.00;103240.88;10504294;28;20072;-63
2022/01/23 06:36:45;;;;;;;10.60;3.58;;;;;;;6.31;100.00;103241.66;10474261;28;20059;-63
2022/01/23 06:42:08;;;;;;;7.60;3.28;;;;;;;6.27;100.00;103252.91;10496069;28;20397;-63
2022/01/23 06:47:29;;;;;;;7.03;2.85;;;;;;;6.18;100.00;103256.44;10466297;28;20411;-63
2022/01/23 06:52:51;;;;;;;10.80;3.08;;;;;;;6.29;100.00;103256.34;10488035;28;20049;-64
2022/01/23 06:58:12;;;;;;;8.70;3.05;;;;;;;6.28;100.00;103267.56;10496000;28;20499;-63
2022/01/23 07:03:35;;;;;;;7.05;2.80;;;;;;;6.42;100.00;103264.00;10495154;28;20044;-63
2022/01/23 07:08:57;;;;;;;8.48;3.05;;;;;;;6.33;100.00;103274.41;10495964;28;20055;-63
2022/01/23 07:14:18;;;;;;;6.10;2.90;;;;;;;6.32;100.00;103277.03;10476597;28;20059;-63
2022/01/23 07:19:40;;;;;;;3.67;2.60;;;;;;;6.33;100.00;103278.75;10495231;28;20131;-63
2022/01/23 07:25:06;;;;;;;8.98;3.13;;;;;;;6.28;100.00;103280.50;10488506;28;20498;-63
2022/01/23 07:30:35;;;;;;;7.65;3.03;;;;;;;6.24;100.00;103286.59;10494508;28;20055;-63
2022/01/23 07:35:57;;;;;;;11.77;3.25;;;;;;;6.18;100.00;103291.81;10492936;28;20056;-63
2022/01/23 07:41:18;;;;;;;8.48;3.40;;;;;;;6.14;100.00;103293.59;10508150;28;20541;-64
2022/01/23 07:46:40;;;;;;;4.95;3.15;;;;;;;6.11;100.00;103309.13;10506429;28;20406;-63
2022/01/23 07:52:04;;;;;;;7.72;3.47;;;;;;;6.18;100.00;103309.94;10493554;28;20097;-63
2022/01/23 07:57:25;;;;;;;13.05;3.55;;;;;;;6.19;100.00;103311.66;10479399;28;20402;-63
2022/01/23 08:02:47;;;;;;;10.25;3.72;;;;;;;6.21;100.00;103320.28;10448327;28;20051;-63
2022/01/23 08:08:09;;;;;;;6.57;3.17;;;;;;;6.20;100.00;103324.59;10492948;28;20483;-63
2022/01/23 08:13:31;;;;;;;7.55;3.22;;;;;;;6.18;100.00;103325.47;10493013;28;20608;-63
2022/01/23 08:18:52;;;;;;;9.40;4.15;;;;;;;6.22;100.00;103330.63;10491858;28;20051;-63
2022/01/23 08:24:14;;;;;;;9.07;3.92;;;;;;;6.21;100.00;103338.41;10472303;28;20494;-63
2022/01/23 08:29:36;;;;;;;8.10;4.03;;;;;;;6.30;100.00;103346.13;10464678;28;20410;-63
2022/01/23 08:34:58;;;;;;;9.55;4.15;;;;;;;6.27;100.00;103351.31;10492541;28;20044;-63
2022/01/23 08:40:45;;;;;;;8.38;4.20;;;;;;;6.30;100.00;103366.81;10505704;28;20045;-63
2022/01/23 08:46:05;;;;;;;8.30;4.57;;;;;;;6.40;100.00;103363.34;10488747;28;20048;-63
2022/01/23 08:51:27;;;;;;;12.80;4.47;;;;;;;6.42;100.00;103364.16;10470018;28;20052;-63
2022/01/23 08:56:49;;;;;;;14.15;4.68;;;;;;;6.54;100.00;103361.50;10466534;28;20045;-63
2022/01/23 09:02:10;;;;;;;9.23;3.67;;;;;;;6.57;100.00;103361.44;10478406;28;20053;-64
2022/01/23 09:07:32;;;;;;;10.40;3.95;;;;;;;6.50;100.00;103365.81;10477453;28;20037;-67
2022/01/23 09:13:29;;;;;;;10.45;3.97;;;;;;;6.58;100.00;103373.53;10472875;28;20780;-64
2022/01/23 09:18:51;;;;;;;9.93;4.00;;;;;;;6.68;100.00;103382.09;10476102;28;20051;-65
2022/01/23 09:24:13;;;;;;;11.13;4.00;;;;;;;6.71;100.00;103386.41;10467320;28;20157;-64
2022/01/23 09:29:41;;;;;;;9.02;3.55;;;;;;;6.77;100.00;103382.03;10484748;28;20036;-64
2022/01/23 09:35:03;;;;;;;7.22;3.55;;;;;;;6.80;100.00;103387.19;10485257;28;20313;-64
2022/01/23 09:40:25;;;;;;;8.18;4.07;;;;;;;6.90;100.00;103388.81;10473597;28;20444;-64
2022/01/23 09:45:50;;;;;;;10.82;4.18;;;;;;;7.05;100.00;103398.22;10468215;28;20048;-64
2022/01/23 09:51:13;;;;;;;7.28;4.00;;;;;;;7.03;100.00;103399.97;10484045;28;20040;-64
2022/01/23 09:56:35;;;;;;;7.35;3.90;;;;;;;6.96;100.00;103409.53;10493999;28;20048;-64
2022/01/23 10:01:58;;;;;;;6.43;3.42;;;;;;;7.17;100.00;103404.13;10498120;28;20051;-64
2022/01/23 10:07:21;;;;;;;9.25;3.60;;;;;;;7.21;100.00;103399.75;10497338;28;20552;-68
2022/01/23 10:13:05;;;;;;;6.68;3.50;;;;;;;7.24;100.00;103394.53;10490790;28;20056;-64
2022/01/23 10:18:27;;;;;;;7.20;3.88;;;;;;;7.40;100.00;103402.19;10472813;28;20102;-64
2022/01/23 10:23:51;;;;;;;7.60;3.42;;;;;;;7.38;100.00;103401.34;10474782;28;20073;-64
2022/01/23 10:29:17;;;;;;;7.90;3.42;;;;;;;7.49;100.00;103399.47;10485074;28;20037;-64
2022/01/23 10:35:00;;;;;;;7.50;3.55;;;;;;;7.60;100.00;103400.22;10475525;28;20049;-64
2022/01/23 10:40:23;;;;;;;5.32;3.33;;;;;;;7.60;100.00;103404.56;10494486;28;20491;-65
2022/01/23 10:51:36;;;;;;;6.55;3.47;;;;;;;7.68;99.83;103394.06;10495412;28;20520;-64
2022/01/23 10:57:07;;;;;;;7.10;3.30;;;;;;;7.73;100.00;103396.59;10494852;28;20055;-65
2022/01/23 11:02:28;;;;;;;8.88;3.70;;;;;;;7.77;99.97;103398.28;10495088;28;20048;-64
2022/01/23 11:07:50;;;;;;;7.43;3.92;;;;;;;7.80;100.00;103393.06;10495210;28;20048;-64
2022/01/23 11:18:57;;;;;;;6.15;3.40;;;;;;;7.78;97.93;103374.03;10506064;28;20147;-64
2022/01/23 11:24:21;;;;;;;7.70;3.15;;;;;;;7.84;98.59;103361.00;10465691;28;20529;-64
2022/01/23 11:30:13;;;;;;;4.65;3.22;;;;;;;7.89;97.86;103362.66;10471361;28;20044;-64
2022/01/23 11:35:35;;;;;;;5.00;3.22;;;;;;;7.83;100.00;103367.06;10468125;28;20055;-63
2022/01/23 11:57:46;;;;;;;6.03;3.00;;;;;;;8.00;97.40;103359.91;10471925;28;20041;-63
2022/01/23 12:03:13;;;;;;;5.70;2.65;;;;;;;8.06;97.81;103373.66;10468339;28;20053;-63
2022/01/23 12:08:36;;;;;;;6.75;3.30;;;;;;;8.12;97.84;103370.97;10466335;28;20055;-63
2022/01/23 12:19:58;;;;;;;6.03;3.40;;;;;;;8.21;97.03;103373.50;10519307;28;20096;-63
2022/01/23 12:25:23;;;;;;;4.60;3.03;;;;;;;8.19;96.95;103371.78;10465597;28;20249;-63
2022/01/23 12:30:46;;;;;;;3.85;2.60;;;;;;;8.21;95.53;103370.03;10466025;28;20596;-63
2022/01/23 12:36:14;;;;;;;4.38;2.38;;;;;;;8.18;96.01;103364.84;10470803;28;20105;-63
2022/01/23 12:41:52;;;;;;;3.42;2.50;;;;;;;8.26;95.65;103363.03;10491886;28;20123;-65
2022/01/23 12:47:19;;;;;;;3.80;2.50;;;;;;;8.50;100.00;103357.44;10490386;28;20062;-66
2022/01/23 12:52:50;;;;;;;2.65;2.20;;;;;;;8.25;98.22;103356.13;10490958;28;20082;-65
2022/01/23 12:58:12;;;;;;;5.10;2.42;;;;;;;8.17;98.67;103357.94;10491669;28;20418;-66
2022/01/23 13:03:37;;;;;;;3.88;2.22;;;;;;;8.03;98.71;103354.66;10477571;28;20064;-64
2022/01/23 13:09:22;;;;;;;3.58;2.47;;;;;;;8.05;98.18;103358.09;10490446;28;20375;-64
2022/01/23 13:31:50;;;;;;;4.00;1.83;;;;;;;8.02;96.84;103353.81;10476633;28;20052;-64
2022/01/23 13:37:15;;;;;;;3.78;1.90;;;;;;;8.14;95.93;103360.56;10475152;28;20654;-63
2022/01/23 13:47:59;;;;;;;2.63;1.52;;;;;;;8.11;94.97;103356.25;10491621;28;20057;-64
2022/01/23 13:50:53;;;;;;;2.30;1.25;;;;;;;8.09;94.77;103350.22;10451164;28;20053;-64
2022/01/23 14:05:28;;;;;;;1.45;0.70;;;;;;;8.11;89.38;103352.81;10496092;28;20048;-64
2022/01/23 14:10:52;;;;;;;1.67;1.17;;;;;;;8.12;89.64;103354.53;10497986;28;20048;-63
2022/01/23 14:16:14;;;;;;;1.67;1.10;;;;;;;8.07;89.09;103354.63;10480382;28;20495;-63
2022/01/23 14:21:44;;;;;;;1.38;1.00;;;;;;;8.08;87.87;103350.25;10482044;28;20037;-64
2022/01/23 14:27:08;;;;;;;2.88;1.00;;;;;;;8.12;89.27;103352.78;10482051;28;20059;-63
2022/01/23 14:32:42;;;;;;;1.23;0.85;;;;;;;8.04;88.69;103353.78;10479259;28;20045;-64
2022/01/23 14:38:17;;;;;;;1.00;0.90;;;;;;;7.94;88.98;103354.78;10471619;28;20072;-63
2022/01/23 14:43:41;;;;;;;2.42;1.00;;;;;;;7.98;88.34;103361.66;10465330;28;20059;-64
2022/01/23 14:49:10;;;;;;;1.73;1.25;;;;;;;7.94;88.91;103362.56;10495017;28;20049;-63
2022/01/23 14:54:33;;;;;;;1.73;1.10;;;;;;;7.96;89.10;103369.47;10474986;28;20057;-63
2022/01/23 14:59:58;;;;;;;3.20;1.30;;;;;;;7.92;89.05;103369.53;10468437;28;20045;-63
2022/01/23 15:05:19;;;;;;;7.28;1.80;;;;;;;7.85;88.60;103380.88;10488859;28;20049;-64
2022/01/23 15:10:44;;;;;;;2.35;1.60;;;;;;;7.82;89.62;103386.94;10475646;28;20040;-63
2022/01/23 15:16:06;;;;;;;3.37;1.60;;;;;;;7.81;90.90;103384.38;10489933;28;20402;-63
2022/01/23 15:21:28;;;;;;;3.22;1.65;;;;;;;7.81;90.06;103384.38;10495445;28;20094;-63
2022/01/23 15:26:49;;;;;;;2.78;1.80;;;;;;;7.87;89.41;103379.09;10489137;28;20048;-63
2022/01/23 15:32:11;;;;;;;3.38;1.40;;;;;;;7.82;89.28;103383.50;10480858;28;20045;-62
2022/01/23 15:37:33;;;;;;;2.42;1.30;;;;;;;7.72;89.88;103389.69;10501096;28;20057;-63
2022/01/23 15:42:56;;;;;;;4.15;1.70;;;;;;;7.75;89.35;103384.44;10486165;28;20044;-63
2022/01/23 15:48:17;;;;;;;2.75;1.60;;;;;;;7.76;90.29;103386.16;10491701;28;20048;-63
2022/01/23 15:53:39;;;;;;;5.07;1.95;;;;;;;7.77;90.18;103390.50;10493492;28;20048;-63
2022/01/23 15:59:00;;;;;;;2.60;1.77;;;;;;;7.73;90.19;103386.19;10492446;28;20051;-63
2022/01/23 16:04:23;;;;;;;2.63;1.90;;;;;;;7.70;90.04;103391.47;10481889;28;20378;-64
2022/01/23 16:09:45;;;;;;;2.83;1.70;;;;;;;7.75;90.64;103380.13;10462541;28;20053;-63
2022/01/23 16:15:14;;;;;;;4.32;2.45;;;;;;;7.74;90.41;103387.91;10494338;28;20045;-64
2022/01/23 16:20:37;;;;;;;7.38;2.28;;;;;;;7.65;90.90;103377.66;10478213;28;20048;-63
2022/01/23 16:26:00;;;;;;;6.13;2.53;;;;;;;7.59;91.72;103382.91;10467035;28;20687;-63
2022/01/23 16:31:21;;;;;;;4.55;2.05;;;;;;;7.63;90.62;103386.34;10476645;28;20052;-63
2022/01/23 16:36:43;;;;;;;5.60;2.45;;;;;;;7.61;91.40;103383.75;10490775;28;20135;-63
2022/01/23 16:42:06;;;;;;;4.25;2.40;;;;;;;7.55;91.01;103389.03;10485727;28;20040;-62
2022/01/23 16:47:27;;;;;;;3.15;2.20;;;;;;;7.51;90.72;103384.75;10493991;28;20131;-63
2022/01/23 16:52:49;;;;;;;5.90;2.25;;;;;;;7.48;90.41;103387.38;10484529;28;20085;-64
2022/01/23 16:58:11;;;;;;;2.45;2.10;;;;;;;7.39;90.83;103397.88;10491190;28;20090;-64
2022/01/23 17:03:32;;;;;;;3.03;2.13;;;;;;;7.46;91.29;103401.25;10488954;28;20459;-63
2022/01/23 17:08:54;;;;;;;5.90;2.15;;;;;;;7.38;91.04;103393.53;10476618;28;20056;-64
2022/01/23 17:14:15;;;;;;;3.63;2.35;;;;;;;7.32;91.03;103401.38;10493101;28;20067;-64
2022/01/23 17:19:37;;;;;;;6.78;2.70;;;;;;;7.27;92.43;103404.91;10494977;28;20414;-63
2022/01/23 17:25:05;;;;;;;3.42;2.50;;;;;;;7.26;92.64;103398.88;10489348;28;20082;-64
2022/01/23 17:30:27;;;;;;;3.83;2.67;;;;;;;7.26;92.23;103403.19;10489372;28;20054;-64
2022/01/23 17:35:49;;;;;;;7.30;2.88;;;;;;;7.27;92.08;103404.91;10461285;28;20474;-63
2022/01/23 17:41:12;;;;;;;4.03;2.47;;;;;;;7.28;91.61;103398.84;10483706;28;20135;-63
2022/01/23 17:46:36;;;;;;;4.22;2.55;;;;;;;7.20;91.62;103408.44;10481662;28;20481;-63
2022/01/23 17:51:58;;;;;;;5.05;2.95;;;;;;;7.22;91.80;103409.25;10486414;28;20389;-63
2022/01/23 17:57:20;;;;;;;5.40;2.85;;;;;;;7.27;91.38;103403.19;10468234;28;20053;-63
2022/01/23 18:02:42;;;;;;;5.72;3.10;;;;;;;7.28;91.56;103402.28;10460069;28;20446;-65
2022/01/23 18:08:06;;;;;;;4.90;2.90;;;;;;;7.26;91.09;103403.19;10457005;28;20048;-64
2022/01/23 18:13:28;;;;;;;4.90;3.08;;;;;;;7.14;92.32;103409.34;10469301;28;20050;-65
2022/01/23 18:18:49;;;;;;;4.05;2.70;;;;;;;7.25;90.55;103407.53;10495278;28;20488;-66
2022/01/23 18:24:31;;;;;;;4.28;2.40;;;;;;;7.20;89.65;103409.28;10476782;28;20048;-64
2022/01/23 18:29:53;;;;;;;3.08;2.60;;;;;;;7.21;90.87;103418.78;10495094;28;20075;-65
2022/01/23 18:35:15;;;;;;;4.75;2.90;;;;;;;7.10;91.00;103419.75;10482284;28;20051;-64
2022/01/23 18:40:37;;;;;;;6.30;3.50;;;;;;;7.18;91.34;103424.00;10476674;28;20041;-65
2022/01/23 18:45:59;;;;;;;4.88;3.60;;;;;;;7.22;89.92;103433.47;10477864;28;20064;-65
2022/01/23 18:51:26;;;;;;;6.47;4.18;;;;;;;7.20;90.34;103432.63;10475181;28;20494;-65
2022/01/23 19:02:22;;;;;;;5.35;3.80;;;;;;;7.12;91.06;103442.22;10476155;28;20051;-64
2022/01/23 19:08:04;;;;;;;5.18;3.67;;;;;;;7.17;90.87;103435.25;10470215;28;20482;-65
2022/01/23 19:13:26;;;;;;;7.57;3.83;;;;;;;7.10;92.21;103443.97;10480590;28;20060;-65
2022/01/23 19:18:48;;;;;;;4.50;3.60;;;;;;;7.20;90.84;103443.00;10483240;28;20044;-65
2022/01/23 19:24:10;;;;;;;8.93;4.70;;;;;;;7.06;91.71;103442.28;10448944;28;20064;-65
2022/01/23 19:29:34;;;;;;;5.28;4.05;;;;;;;7.05;92.25;103429.34;10478398;28;20078;-65
2022/01/23 19:34:57;;;;;;;7.15;5.30;;;;;;;7.07;91.72;103433.63;10484231;28;20063;-65
2022/01/23 19:40:28;;;;;;;4.78;3.50;;;;;;;6.97;92.04;103426.81;10487851;28;20421;-64
2022/01/23 19:45:54;;;;;;;7.70;3.92;;;;;;;7.04;92.57;103427.59;10473362;28;20060;-64
2022/01/23 19:51:16;;;;;;;6.93;4.70;;;;;;;6.94;92.96;103421.63;10476025;28;20056;-62
2022/01/23 19:56:38;;;;;;;5.57;3.90;;;;;;;7.04;92.56;103423.25;10469909;28;20048;-64
2022/01/23 20:02:00;;;;;;;5.65;3.60;;;;;;;6.86;92.40;103423.41;10460218;28;20502;-63
2022/01/23 20:07:26;;;;;;;6.38;4.35;;;;;;;6.99;92.51;103417.25;10473363;28;20044;-63
2022/01/23 20:12:51;;;;;;;8.85;5.43;;;;;;;7.02;92.07;103419.81;10477022;28;20044;-63
2022/01/23 20:18:12;;;;;;;8.98;3.95;;;;;;;6.88;93.57;103416.47;10509517;28;20080;-63
2022/01/23 20:23:35;;;;;;;4.38;3.60;;;;;;;6.96;93.04;103414.72;10453789;28;20055;-63
2022/01/23 20:28:57;;;;;;;4.75;2.97;;;;;;;6.79;93.39;103406.19;10476442;28;20052;-62
2022/01/23 20:34:19;;;;;;;8.00;4.20;;;;;;;6.91;92.37;103416.47;10492570;28;20056;-63
2022/01/23 20:39:40;;;;;;;9.60;4.03;;;;;;;6.88;95.06;103410.47;10451558;28;20059;-63
2022/01/23 20:45:02;;;;;;;4.68;3.88;;;;;;;6.87;92.29;103408.75;10474297;28;20457;-63
2022/01/23 20:50:31;;;;;;;6.38;4.15;;;;;;;6.83;93.10;103402.72;10492421;28;20443;-64
2022/01/23 20:55:52;;;;;;;4.93;3.55;;;;;;;6.85;92.98;103397.50;10491609;28;20055;-64
2022/01/23 21:01:15;;;;;;;5.32;4.20;;;;;;;6.89;92.64;103384.50;10497622;28;20373;-64
2022/01/23 21:06:40;;;;;;;6.10;3.70;;;;;;;6.82;93.18;103394.94;10500377;28;20053;-65
2022/01/23 21:12:02;;;;;;;4.88;3.60;;;;;;;6.80;92.70;103392.38;10459482;28;20057;-64
2022/01/23 21:29:31;;;;;;;10.35;5.00;;;;;;;6.82;90.43;103379.38;10501433;28;20052;-64
2022/01/23 21:38:16;;;;;;;7.15;4.97;;;;;;;6.79;91.59;103380.28;10495468;28;20055;-63
2022/01/23 21:40:11;;;;;;;7.25;4.63;;;;;;;6.86;91.65;103376.75;10477323;28;20047;-64
2022/01/23 21:45:33;;;;;;;5.57;4.20;;;;;;;6.70;92.04;103369.97;10495997;28;20044;-64
2022/01/23 21:50:55;;;;;;;7.28;5.05;;;;;;;6.78;92.95;103368.19;10490609;28;20052;-64
2022/01/23 21:56:17;;;;;;;7.97;5.80;;;;;;;6.75;89.99;103383.75;10482795;28;20052;-63
2022/01/23 22:01:38;;;;;;;9.00;6.13;;;;;;;6.74;91.11;103382.03;10475957;28;20414;-66
2022/01/23 22:07:20;;;;;;;9.50;6.05;;;;;;;6.86;90.28;103381.94;10494403;28;20059;-64
2022/01/23 22:18:06;;;;;;;6.63;5.15;;;;;;;6.78;92.43;103377.69;10472512;28;20049;-64
2022/01/23 22:26:41;;;;;;;9.50;5.95;;;;;;;6.77;91.24;103371.66;10484012;28;20053;-65
2022/01/23 22:29:24;;;;;;;10.23;5.93;;;;;;;6.86;90.46;103379.34;10458086;28;20045;-64
2022/01/23 22:34:47;;;;;;;7.22;5.57;;;;;;;6.88;90.41;103390.56;10470051;28;20052;-65
2022/01/23 22:40:10;;;;;;;9.35;6.22;;;;;;;6.75;92.49;103401.91;10474978;28;20051;-63
2022/01/23 22:45:46;;;;;;;13.10;6.93;;;;;;;6.69;91.27;103406.28;10473050;28;20048;-64
2022/01/23 22:51:08;;;;;;;8.90;6.72;;;;;;;6.75;90.34;103414.03;10481947;28;20047;-64
2022/01/23 22:56:30;;;;;;;11.13;7.88;;;;;;;6.75;89.57;103409.69;10476305;28;20049;-63
2022/01/23 23:01:51;;;;;;;12.25;8.45;;;;;;;6.59;90.75;103402.03;10488010;28;20051;-63
2022/01/23 23:07:13;;;;;;;14.10;9.50;;;;;;;6.75;90.23;103403.66;10485299;28;20131;-64
2022/01/23 23:12:39;;;;;;;14.65;8.75;;;;;;;6.67;90.48;103399.41;10492489;28;20044;-65
2022/01/23 23:18:02;;;;;;;15.43;8.70;;;;;;;6.65;91.13;103401.13;10492159;28;20514;-64
2022/01/23 23:23:23;;;;;;;13.63;9.20;;;;;;;6.54;91.15;103403.78;10494061;28;20295;-64
2022/01/23 23:28:45;;;;;;;14.98;9.90;;;;;;;6.66;91.94;103413.22;10494576;28;20051;-64
2022/01/23 23:34:07;;;;;;;17.13;10.93;;;;;;;6.64;90.76;103409.78;10494008;28;20060;-63
2022/01/23 23:39:52;;;;;;;16.85;11.13;;;;;;;6.69;91.08;103409.72;10467319;28;20053;-64
2022/01/23 23:45:15;;;;;;;18.55;11.80;;;;;;;6.58;91.73;103415.88;10463866;28;20044;-64
2022/01/23 23:50:37;;;;;;;19.80;11.55;;;;;;;6.57;91.25;103406.38;10494276;28;20056;-63
2022/01/23 23:56:00;;;;;;;14.80;10.25;;;;;;;6.48;90.89;103413.34;10492596;28;20052;-64
